createdAt,value
2023-03-05T00:01:34.012Z,99.90
2023-03-05T00:04:04.848Z,99.90
2023-03-05T00:06:34.463Z,99.90
2023-03-05T00:09:03.576Z,99.90
2023-03-05T00:11:33.664Z,99.90
2023-03-05T00:14:06.355Z,99.90
2023-03-05T00:16:34.787Z,99.90
2023-03-05T00:19:03.569Z,99.90
2023-03-05T00:21:33.336Z,99.90
2023-03-05T00:24:03.001Z,99.90
2023-03-05T00:26:34.668Z,99.90
2023-03-05T00:29:04.729Z,99.90
2023-03-05T00:31:35.325Z,99.90
2023-03-05T00:34:05.597Z,99.90
2023-03-05T00:36:34.091Z,99.90
2023-03-05T00:39:03.336Z,99.90
2023-03-05T00:41:32.077Z,99.90
2023-03-05T00:44:00.266Z,99.90
2023-03-05T00:46:32.301Z,99.90
2023-03-05T00:49:00.601Z,99.90
2023-03-05T00:51:29.897Z,99.90
2023-03-05T00:53:58.378Z,99.90
2023-03-05T00:56:26.961Z,99.90
2023-03-05T00:58:55.082Z,99.90
2023-03-05T01:01:23.469Z,99.90
2023-03-05T01:03:53.183Z,99.90
2023-03-05T01:06:21.297Z,99.90
2023-03-05T01:08:49.774Z,99.90
2023-03-05T01:11:17.951Z,99.90
2023-03-05T01:13:46.102Z,99.90
2023-03-05T01:16:14.415Z,99.90
2023-03-05T01:18:42.719Z,99.90
2023-03-05T01:21:12.469Z,99.90
2023-03-05T01:23:41.684Z,99.90
2023-03-05T01:26:09.735Z,99.90
2023-03-05T01:28:38.632Z,99.90
2023-03-05T01:31:10.702Z,99.90
2023-03-05T01:33:39.176Z,99.90
2023-03-05T01:36:15.740Z,99.90
2023-03-05T01:38:44.567Z,99.90
2023-03-05T01:41:13.938Z,99.90
2023-03-05T01:43:44.102Z,99.90
2023-03-05T01:46:29.856Z,99.90
2023-03-05T01:49:04.651Z,99.90
2023-03-05T01:51:39.224Z,99.90
2023-03-05T01:54:10.438Z,99.90
2023-03-05T01:56:40.041Z,99.90
2023-03-05T01:59:08.727Z,99.90
2023-03-05T02:01:41.992Z,99.90
2023-03-05T02:04:12.797Z,99.90
2023-03-05T02:06:44.226Z,99.90
2023-03-05T02:09:12.574Z,99.90
2023-03-05T02:11:41.687Z,99.90
2023-03-05T02:14:10.961Z,99.90
2023-03-05T02:16:39.787Z,99.90
2023-03-05T02:19:10.804Z,99.90
2023-03-05T02:21:42.177Z,99.90
2023-03-05T02:24:13.778Z,99.90
2023-03-05T02:26:43.263Z,99.90
2023-03-05T02:29:14.150Z,99.90
2023-03-05T02:31:42.441Z,99.90
2023-03-05T02:34:10.799Z,99.90
2023-03-05T02:36:40.946Z,99.90
2023-03-05T02:39:10.245Z,99.90
2023-03-05T02:41:38.733Z,99.90
2023-03-05T02:44:07.130Z,99.90
2023-03-05T02:46:35.669Z,99.90
2023-03-05T02:49:04.024Z,99.90
2023-03-05T02:51:32.153Z,99.90
2023-03-05T02:54:01.732Z,99.90
2023-03-05T02:56:29.845Z,99.90
2023-03-05T02:58:57.975Z,99.90
2023-03-05T03:01:28.271Z,99.90
2023-03-05T03:03:56.397Z,99.90
2023-03-05T03:06:24.461Z,99.90
2023-03-05T03:08:52.664Z,99.90
2023-03-05T03:11:22.073Z,99.90
2023-03-05T03:13:50.060Z,99.90
2023-03-05T03:16:18.328Z,99.90
2023-03-05T03:18:48.904Z,99.90
2023-03-05T03:21:22.531Z,99.90
2023-03-05T03:23:50.522Z,99.90
2023-03-05T03:26:19.001Z,99.90
2023-03-05T03:28:48.585Z,99.90
2023-03-05T03:31:17.386Z,99.90
2023-03-05T03:33:45.839Z,99.90
2023-03-05T03:36:14.396Z,99.90
2023-03-05T03:38:42.479Z,99.90
2023-03-05T03:41:10.827Z,99.90
2023-03-05T03:43:39.281Z,99.90
2023-03-05T03:46:09.410Z,99.90
2023-03-05T03:48:37.503Z,99.90
2023-03-05T03:51:07.336Z,99.90
2023-03-05T03:53:35.463Z,99.90
2023-03-05T03:56:03.458Z,99.90
2023-03-05T03:58:31.564Z,99.90
2023-03-05T04:00:59.650Z,99.90
2023-03-05T04:03:29.119Z,99.90
2023-03-05T04:05:57.179Z,99.90
2023-03-05T04:08:25.194Z,99.90
2023-03-05T04:10:53.178Z,99.90
2023-03-05T04:13:21.054Z,99.90
2023-03-05T04:15:49.168Z,99.90
2023-03-05T04:18:17.190Z,99.90
2023-03-05T04:20:46.625Z,99.90
2023-03-05T04:23:14.905Z,99.90
2023-03-05T04:25:43.647Z,99.90
2023-03-05T04:28:12.149Z,99.90
2023-03-05T04:30:40.187Z,99.90
2023-03-05T04:33:08.262Z,99.90
2023-03-05T04:35:36.309Z,99.90
2023-03-05T04:38:05.816Z,99.90
2023-03-05T04:40:33.990Z,99.90
2023-03-05T04:43:02.138Z,99.90
2023-03-05T04:45:30.436Z,99.90
2023-03-05T04:47:58.586Z,99.90
2023-03-05T04:50:26.701Z,99.90
2023-03-05T04:52:55.756Z,99.90
2023-03-05T04:55:25.134Z,99.90
2023-03-05T04:57:53.387Z,99.90
2023-03-05T05:00:23.097Z,99.90
2023-03-05T05:02:52.689Z,99.90
2023-03-05T05:05:22.847Z,99.90
2023-03-05T05:07:50.888Z,99.90
2023-03-05T05:10:18.983Z,99.90
2023-03-05T05:12:48.678Z,99.90
2023-03-05T05:15:16.814Z,99.90
2023-03-05T05:17:44.868Z,99.90
2023-03-05T05:20:15.410Z,99.90
2023-03-05T05:22:43.969Z,99.90
2023-03-05T05:25:13.290Z,99.90
2023-03-05T05:27:41.691Z,99.90
2023-03-05T05:30:12.863Z,99.90
2023-03-05T05:32:40.993Z,99.90
2023-03-05T05:35:10.745Z,99.90
2023-03-05T05:37:38.758Z,99.90
2023-03-05T05:40:08.320Z,99.90
2023-03-05T05:42:36.714Z,99.90
2023-03-05T05:45:06.048Z,99.90
2023-03-05T05:47:35.619Z,99.90
2023-03-05T05:50:03.627Z,99.90
2023-03-05T05:52:31.652Z,99.90
2023-03-05T05:54:59.679Z,99.90
2023-03-05T05:57:27.897Z,99.90
2023-03-05T05:59:55.885Z,99.90
2023-03-05T06:02:24.036Z,99.90
2023-03-05T06:04:53.608Z,99.90
2023-03-05T06:07:21.662Z,99.90
2023-03-05T06:09:49.811Z,99.90
2023-03-05T06:12:19.052Z,99.90
2023-03-05T06:14:47.109Z,99.90
2023-03-05T06:17:25.081Z,99.90
2023-03-05T06:20:00.012Z,99.90
2023-03-05T06:22:28.602Z,99.90
2023-03-05T06:24:56.607Z,99.90
2023-03-05T06:27:24.735Z,99.90
2023-03-05T06:29:54.590Z,99.90
2023-03-05T06:32:22.727Z,99.90
2023-03-05T06:34:51.473Z,99.90
2023-03-05T06:37:20.945Z,99.90
2023-03-05T06:39:49.354Z,99.90
2023-03-05T06:42:19.459Z,99.90
2023-03-05T06:44:48.422Z,99.90
2023-03-05T06:47:16.844Z,99.90
2023-03-05T06:49:44.881Z,99.90
2023-03-05T06:52:12.873Z,99.90
2023-03-05T06:54:42.354Z,99.90
2023-03-05T06:57:11.686Z,99.90
2023-03-05T06:59:39.612Z,99.90
2023-03-05T07:02:07.791Z,99.90
2023-03-05T07:04:36.006Z,99.90
2023-03-05T07:07:04.099Z,99.90
2023-03-05T07:09:32.180Z,99.90
2023-03-05T07:12:01.535Z,99.90
2023-03-05T07:14:29.789Z,99.90
2023-03-05T07:16:57.831Z,99.90
2023-03-05T07:19:25.849Z,99.90
2023-03-05T07:21:53.895Z,99.90
2023-03-05T07:24:22.835Z,99.90
2023-03-05T07:26:50.778Z,99.90
2023-03-05T07:29:20.152Z,99.90
2023-03-05T07:31:48.332Z,99.90
2023-03-05T07:34:26.160Z,99.90
2023-03-05T07:36:55.105Z,99.90
2023-03-05T07:39:23.251Z,99.90
2023-03-05T07:41:52.579Z,99.90
2023-03-05T07:44:21.910Z,99.90
2023-03-05T07:46:49.932Z,99.90
2023-03-05T07:49:17.949Z,99.90
2023-03-05T07:51:45.922Z,99.90
2023-03-05T07:54:14.117Z,99.90
2023-03-05T07:56:42.541Z,99.90
2023-03-05T07:59:13.303Z,99.90
2023-03-05T08:01:42.693Z,99.90
2023-03-05T08:04:11.576Z,99.90
2023-03-05T08:06:40.923Z,99.90
2023-03-05T08:09:08.961Z,99.90
2023-03-05T08:11:36.933Z,99.90
2023-03-05T08:14:04.928Z,99.90
2023-03-05T08:16:33.144Z,99.90
2023-03-05T08:19:02.824Z,99.90
2023-03-05T08:21:33.784Z,99.90
2023-03-05T08:24:03.008Z,99.90
2023-03-05T08:26:32.440Z,99.90
2023-03-05T08:29:00.422Z,99.90
2023-03-05T08:31:30.212Z,99.90
2023-03-05T08:33:59.778Z,99.90
2023-03-05T08:36:29.367Z,99.90
2023-03-05T08:38:59.112Z,99.90
2023-03-05T08:41:27.310Z,99.90
2023-03-05T08:43:55.368Z,99.90
2023-03-05T08:46:23.472Z,99.90
2023-03-05T08:48:51.709Z,99.90
2023-03-05T08:51:22.218Z,99.90
2023-03-05T08:53:51.480Z,99.90
2023-03-05T08:56:19.552Z,99.90
2023-03-05T08:58:48.291Z,99.90
2023-03-05T09:01:16.563Z,99.90
2023-03-05T09:03:45.222Z,99.90
2023-03-05T09:06:13.876Z,99.90
2023-03-05T09:08:42.613Z,99.90
2023-03-05T09:11:14.750Z,99.90
2023-03-05T09:13:42.779Z,99.90
2023-03-05T09:16:13.971Z,99.90
2023-03-05T09:18:42.314Z,99.90
2023-03-05T09:21:12.744Z,99.90
2023-03-05T09:23:41.481Z,99.90
2023-03-05T09:26:13.725Z,99.90
2023-03-05T09:28:44.512Z,99.90
2023-03-05T09:31:13.432Z,99.90
2023-03-05T09:33:41.804Z,99.90
2023-03-05T09:36:19.389Z,99.90
2023-03-05T09:38:47.372Z,99.90
2023-03-05T09:41:26.069Z,99.90
2023-03-05T09:44:02.571Z,99.90
2023-03-05T09:46:42.812Z,99.90
2023-03-05T09:49:18.956Z,99.90
2023-03-05T09:51:48.171Z,99.90
2023-03-05T09:58:17.645Z,99.90
2023-03-05T10:00:48.323Z,99.90
2023-03-05T10:03:21.407Z,99.90
2023-03-05T10:06:05.016Z,99.90
2023-03-05T10:08:45.214Z,99.90
2023-03-05T10:11:34.890Z,99.90
2023-03-05T10:14:04.819Z,99.90
2023-03-05T10:17:06.062Z,99.90
2023-03-05T10:20:03.000Z,99.90
2023-03-05T10:22:34.691Z,99.90
2023-03-05T10:25:17.780Z,99.90
2023-03-05T10:27:52.557Z,99.90
2023-03-05T10:30:51.803Z,99.90
2023-03-05T10:33:28.490Z,99.90
2023-03-05T10:36:28.355Z,99.90
2023-03-05T10:39:20.781Z,99.90
2023-03-05T10:42:02.695Z,99.90
2023-03-05T10:44:37.425Z,99.90
2023-03-05T10:47:16.246Z,99.90
2023-03-05T10:49:51.910Z,99.90
2023-03-05T10:52:24.435Z,99.90
2023-03-05T10:54:52.759Z,99.90
2023-03-05T10:57:23.513Z,99.90
2023-03-05T10:59:53.970Z,99.90
2023-03-05T11:02:24.879Z,99.90
2023-03-05T11:04:55.335Z,99.90
2023-03-05T11:07:38.984Z,99.90
2023-03-05T11:10:16.853Z,99.90
2023-03-05T11:12:46.217Z,99.90
2023-03-05T11:15:28.589Z,99.60
2023-03-05T11:18:19.414Z,99.50
2023-03-05T11:20:47.879Z,99.10
2023-03-05T11:23:16.926Z,98.40
2023-03-05T11:26:00.983Z,98.20
2023-03-05T11:28:33.834Z,97.60
2023-03-05T11:31:08.823Z,97.20
2023-03-05T11:33:39.086Z,97.40
2023-03-05T11:36:28.806Z,97.60
2023-03-05T11:38:59.632Z,97.50
2023-03-05T11:41:32.379Z,97.20
2023-03-05T11:44:05.745Z,97.40
2023-03-05T11:46:41.404Z,96.40
2023-03-05T11:49:16.753Z,96.40
2023-03-05T11:51:50.460Z,96.20
2023-03-05T11:54:23.979Z,95.80
2023-03-05T11:56:56.416Z,95.70
2023-03-05T11:59:30.105Z,95.10
2023-03-05T12:01:59.528Z,94.80
2023-03-05T12:04:30.811Z,94.30
2023-03-05T12:07:01.798Z,94.20
2023-03-05T12:09:40.883Z,94.30
2023-03-05T12:12:19.776Z,94.30
2023-03-05T12:14:54.843Z,94.60
2023-03-05T12:17:29.686Z,95.10
2023-03-05T12:20:05.084Z,96.20
2023-03-05T12:22:37.894Z,96.10
2023-03-05T12:25:26.911Z,96.10
2023-03-05T12:27:55.446Z,96.50
2023-03-05T12:30:57.488Z,96.80
2023-03-05T12:33:35.242Z,96.50
2023-03-05T12:36:36.012Z,96.10
2023-03-05T12:39:44.120Z,96.20
2023-03-05T12:42:47.764Z,95.80
2023-03-05T12:45:31.174Z,95.50
2023-03-05T12:48:37.154Z,95.40
2023-03-05T12:51:06.859Z,95.30
2023-03-05T12:53:35.050Z,95.20
2023-03-05T12:56:12.612Z,95.10
2023-03-05T12:58:44.675Z,94.90
2023-03-05T13:01:28.492Z,95.10
2023-03-05T13:03:59.718Z,95.20
2023-03-05T13:06:33.711Z,95.20
2023-03-05T13:09:04.561Z,95.00
2023-03-05T13:11:35.235Z,95.20
2023-03-05T13:14:04.299Z,95.10
2023-03-05T13:16:42.936Z,95.20
2023-03-05T13:19:19.110Z,95.20
2023-03-05T13:22:00.100Z,95.00
2023-03-05T13:24:29.261Z,95.40
2023-03-05T13:26:58.325Z,95.40
2023-03-05T13:29:30.634Z,95.10
2023-03-05T13:32:02.573Z,95.40
2023-03-05T13:34:46.256Z,95.20
2023-03-05T13:37:20.569Z,95.50
2023-03-05T13:39:52.598Z,95.30
2023-03-05T13:42:24.503Z,95.60
2023-03-05T13:44:59.803Z,95.50
2023-03-05T13:47:30.805Z,95.20
2023-03-05T13:50:00.530Z,95.20
2023-03-05T13:52:32.302Z,95.30
2023-03-05T13:55:04.823Z,95.60
2023-03-05T13:57:37.455Z,95.40
2023-03-05T14:00:07.687Z,94.70
2023-03-05T14:02:36.372Z,94.90
2023-03-05T14:05:05.317Z,95.00
2023-03-05T14:07:41.054Z,95.20
2023-03-05T14:10:30.342Z,95.50
2023-03-05T14:12:59.490Z,95.40
2023-03-05T14:15:29.811Z,94.80
2023-03-05T14:18:16.867Z,95.00
2023-03-05T14:21:01.094Z,94.80
2023-03-05T14:23:37.414Z,94.80
2023-03-05T14:26:28.943Z,95.30
2023-03-05T14:29:00.286Z,95.40
2023-03-05T14:31:30.686Z,95.40
2023-03-05T14:34:03.993Z,95.30
2023-03-05T14:36:33.784Z,95.60
2023-03-05T14:39:03.826Z,95.80
2023-03-05T14:41:39.926Z,96.30
2023-03-05T14:44:15.316Z,96.00
2023-03-05T14:46:44.629Z,96.00
2023-03-05T14:49:12.867Z,95.80
2023-03-05T14:51:43.412Z,95.90
2023-03-05T14:54:22.054Z,96.00
2023-03-05T14:56:51.090Z,95.70
2023-03-05T14:59:21.574Z,95.80
2023-03-05T15:01:51.066Z,96.10
2023-03-05T15:04:21.780Z,96.10
2023-03-05T15:06:52.077Z,96.40
2023-03-05T15:09:25.911Z,96.80
2023-03-05T15:11:54.063Z,97.10
2023-03-05T15:14:22.810Z,97.30
2023-03-05T15:16:50.881Z,97.10
2023-03-05T15:19:19.602Z,97.10
2023-03-05T15:21:48.157Z,97.20
2023-03-05T15:24:16.602Z,97.20
2023-03-05T15:26:46.625Z,97.30
2023-03-05T15:29:16.950Z,97.40
2023-03-05T15:31:45.083Z,97.40
2023-03-05T15:34:13.027Z,97.60
2023-03-05T15:36:41.018Z,97.70
2023-03-05T15:39:08.986Z,98.00
2023-03-05T15:41:36.972Z,98.40
2023-03-05T15:44:06.482Z,98.20
2023-03-05T15:46:37.127Z,98.50
2023-03-05T15:49:05.148Z,98.30
2023-03-05T15:51:33.129Z,98.60
2023-03-05T15:54:01.166Z,98.50
2023-03-05T15:56:29.220Z,98.80
2023-03-05T15:58:57.276Z,98.90
2023-03-05T16:01:26.686Z,98.90
2023-03-05T16:03:54.738Z,99.10
2023-03-05T16:06:24.957Z,99.40
2023-03-05T16:08:56.849Z,99.60
2023-03-05T16:11:25.444Z,99.40
2023-03-05T16:13:53.780Z,99.50
2023-03-05T16:16:23.853Z,99.60
2023-03-05T16:18:55.400Z,99.60
2023-03-05T16:21:23.578Z,99.80
2023-03-05T16:23:52.019Z,99.80
2023-03-05T16:26:20.843Z,99.90
2023-03-05T16:28:49.303Z,99.90
2023-03-05T16:31:18.457Z,99.90
2023-03-05T16:33:46.738Z,99.90
2023-03-05T16:36:30.727Z,99.90
2023-03-05T16:39:00.302Z,99.90
2023-03-05T16:41:29.626Z,99.90
2023-03-05T16:43:58.251Z,99.90
2023-03-05T16:46:28.364Z,99.90
2023-03-05T16:48:57.137Z,99.90
2023-03-05T16:51:27.842Z,99.90
2023-03-05T16:53:56.185Z,99.90
2023-03-05T16:56:24.595Z,99.90
2023-03-05T16:58:53.804Z,99.90
2023-03-05T17:01:22.480Z,99.90
2023-03-05T17:03:52.492Z,99.90
2023-03-05T17:06:23.366Z,99.90
2023-03-05T17:08:53.588Z,99.90
2023-03-05T17:11:22.685Z,99.90
2023-03-05T17:13:50.852Z,99.90
2023-03-05T17:16:21.295Z,99.90
2023-03-05T17:18:49.778Z,99.90
2023-03-05T17:21:18.126Z,99.90
2023-03-05T17:23:46.457Z,99.90
2023-03-05T17:26:17.641Z,99.90
2023-03-05T17:28:46.147Z,99.90
2023-03-05T17:31:15.327Z,99.90
2023-03-05T17:33:43.775Z,99.90
2023-03-05T17:36:16.297Z,99.90
2023-03-05T17:38:44.970Z,99.90
2023-03-05T17:41:13.139Z,99.90
2023-03-05T17:43:42.905Z,99.90
2023-03-05T17:46:11.379Z,99.90
2023-03-05T17:48:39.980Z,99.90
2023-03-05T17:51:08.491Z,99.90
2023-03-05T17:53:38.880Z,99.90
2023-03-05T17:56:09.025Z,99.90
2023-03-05T17:58:37.495Z,99.90
2023-03-05T18:01:07.920Z,99.90
2023-03-05T18:03:36.628Z,99.90
2023-03-05T18:06:05.371Z,99.90
2023-03-05T18:08:33.891Z,99.90
2023-03-05T18:11:02.175Z,99.90
2023-03-05T18:13:30.219Z,99.90
2023-03-05T18:15:59.578Z,99.90
2023-03-05T18:18:28.888Z,99.90
2023-03-05T18:20:57.313Z,99.90
2023-03-05T18:23:25.306Z,99.90
2023-03-05T18:25:53.246Z,99.90
2023-03-05T18:28:21.287Z,99.90
2023-03-05T18:30:49.416Z,99.90
2023-03-05T18:33:20.618Z,99.90
2023-03-05T18:35:52.298Z,99.90
2023-03-05T18:38:20.599Z,99.90
2023-03-05T18:40:51.177Z,99.90
2023-03-05T18:43:20.734Z,99.90
2023-03-05T18:45:49.002Z,99.90
2023-03-05T18:48:16.945Z,99.90
2023-03-05T18:50:45.226Z,99.90
2023-03-05T18:53:15.018Z,99.90
2023-03-05T18:55:43.463Z,99.90
2023-03-05T18:58:14.049Z,99.90
2023-03-05T19:00:42.421Z,99.90
2023-03-05T19:03:11.639Z,99.90
2023-03-05T19:05:39.952Z,99.90
2023-03-05T19:08:08.555Z,99.90
2023-03-05T19:10:38.527Z,99.90
2023-03-05T19:13:15.777Z,99.90
2023-03-05T19:15:44.240Z,99.90
2023-03-05T19:18:13.201Z,99.90
2023-03-05T19:20:41.223Z,99.90
2023-03-05T19:23:09.392Z,99.90
2023-03-05T19:25:40.866Z,99.90
2023-03-05T19:28:08.869Z,99.90
2023-03-05T19:30:36.923Z,99.90
2023-03-05T19:33:06.217Z,99.90
2023-03-05T19:35:34.267Z,99.90
2023-03-05T19:38:02.314Z,99.90
2023-03-05T19:40:30.396Z,99.90
2023-03-05T19:43:00.792Z,99.90
2023-03-05T19:45:28.869Z,99.90
2023-03-05T19:47:56.921Z,99.90
2023-03-05T19:50:24.890Z,99.90
2023-03-05T19:52:52.793Z,99.90
2023-03-05T19:55:21.209Z,99.90
2023-03-05T19:57:49.341Z,99.90
2023-03-05T20:00:20.255Z,99.90
2023-03-05T20:02:48.740Z,99.90
2023-03-05T20:05:16.766Z,99.90
2023-03-05T20:07:44.795Z,99.90
2023-03-05T20:10:13.500Z,99.90
2023-03-05T20:12:43.924Z,99.90
2023-03-05T20:15:12.059Z,99.90
2023-03-05T20:17:45.553Z,99.90
2023-03-05T20:20:14.975Z,99.90
2023-03-05T20:22:44.151Z,99.90
2023-03-05T20:25:13.108Z,99.90
2023-03-05T20:27:41.179Z,99.90
2023-03-05T20:30:13.239Z,99.90
2023-03-05T20:32:42.629Z,99.90
2023-03-05T20:35:14.620Z,99.90
2023-03-05T20:37:49.950Z,99.90
2023-03-05T20:40:18.784Z,99.90
2023-03-05T20:42:46.852Z,99.90
2023-03-05T20:45:14.853Z,99.90
2023-03-05T20:47:46.444Z,99.90
2023-03-05T20:50:16.368Z,99.90
2023-03-05T20:52:44.355Z,99.90
2023-03-05T20:55:13.393Z,99.90
2023-03-05T20:57:42.172Z,99.90
2023-03-05T21:00:11.502Z,99.90
2023-03-05T21:02:39.953Z,99.90
2023-03-05T21:05:10.041Z,99.90
2023-03-05T21:07:38.210Z,99.90
2023-03-05T21:10:07.420Z,99.90
2023-03-05T21:12:35.415Z,99.90
2023-03-05T21:15:03.401Z,99.90
2023-03-05T21:17:31.567Z,99.90
2023-03-05T21:19:59.601Z,99.90
2023-03-05T21:22:29.524Z,99.90
2023-03-05T21:25:03.340Z,99.90
2023-03-05T21:27:31.392Z,99.90
2023-03-05T21:29:59.366Z,99.90
2023-03-05T21:32:27.364Z,99.90
2023-03-05T21:34:55.324Z,99.90
2023-03-05T21:37:23.294Z,99.90
2023-03-05T21:39:52.938Z,99.90
2023-03-05T21:42:20.931Z,99.90
2023-03-05T21:44:49.028Z,99.90
2023-03-05T21:47:17.193Z,99.90
2023-03-05T21:49:45.254Z,99.90
2023-03-05T21:52:13.252Z,99.90
2023-03-05T21:54:41.795Z,99.90
2023-03-05T21:57:12.786Z,99.90
2023-03-05T21:59:41.548Z,99.90
2023-03-05T22:02:12.506Z,99.90
2023-03-05T22:04:41.035Z,99.90
2023-03-05T22:07:09.324Z,99.90
2023-03-05T22:09:37.429Z,99.90
2023-03-05T22:12:07.137Z,99.90
2023-03-05T22:14:36.649Z,99.90
2023-03-05T22:17:04.678Z,99.90
2023-03-05T22:19:33.004Z,99.90
2023-03-05T22:22:01.735Z,99.90
2023-03-05T22:24:29.623Z,99.90
2023-03-05T22:26:57.546Z,99.90
2023-03-05T22:29:26.844Z,99.90
2023-03-05T22:31:56.842Z,99.90
2023-03-05T22:34:24.783Z,99.90
2023-03-05T22:36:52.631Z,99.90
2023-03-05T22:39:20.536Z,99.90
2023-03-05T22:41:48.471Z,99.90
2023-03-05T22:44:17.474Z,99.90
2023-03-05T22:46:45.596Z,99.90
2023-03-05T22:49:15.183Z,99.90
2023-03-05T22:51:43.335Z,99.90
2023-03-05T22:54:11.435Z,99.90
2023-03-05T22:56:39.741Z,99.90
2023-03-05T22:59:07.748Z,99.90
2023-03-05T23:01:35.973Z,99.90
2023-03-05T23:04:13.321Z,99.90
2023-03-05T23:06:42.902Z,99.90
2023-03-05T23:09:10.944Z,99.90
2023-03-05T23:11:38.939Z,99.90
2023-03-05T23:14:06.845Z,99.90
2023-03-05T23:16:34.814Z,99.90
2023-03-05T23:19:02.894Z,99.90
2023-03-05T23:21:30.958Z,99.90
2023-03-05T23:24:00.338Z,99.90
2023-03-05T23:26:28.641Z,99.90
2023-03-05T23:28:56.709Z,99.90
2023-03-05T23:31:24.829Z,99.90
2023-03-05T23:33:52.780Z,99.90
2023-03-05T23:36:25.006Z,99.90
2023-03-05T23:38:57.424Z,99.90
2023-03-05T23:41:26.818Z,99.90
2023-03-05T23:43:54.769Z,99.90
2023-03-05T23:46:22.690Z,99.90
2023-03-05T23:48:50.691Z,99.90
2023-03-05T23:51:19.099Z,99.90
2023-03-05T23:53:48.401Z,99.90
2023-03-05T23:56:16.293Z,99.90
2023-03-05T23:58:45.536Z,99.90
